sensor_id;sensor_type;location;lat;lon;timestamp;P1;durP1;ratioP1;P2;durP2;ratioP2
22515;SDS011;11424;48.860;9.624;2023-07-31T00:01:01;11.7;;;13.1;;
22515;SDS011;11424;48.860;9.624;2023-07-31T00:06:01;22.2;;;24.3;;
22515;SDS011;11424;48.860;9.624;2023-07-31T00:11:01;57;;;61.3;;
22515;SDS011;11424;48.860;9.624;2023-07-31T00:16:01;26.4;;;28.6;;
22515;SDS011;11424;48.860;9.624;2023-07-31T00:21:01;43.9;;;47.4;;
22515;SDS011;11424;48.860;9.624;2023-07-31T00:26:01;25.2;;;27.2;;
22515;SDS011;11424;48.860;9.624;2023-07-31T00:31:01;30.8;;;33.4;;
22515;SDS011;11424;48.860;9.624;2023-07-31T00:36:01;60.2;;;64.9;;
22515;SDS011;11424;48.860;9.624;2023-07-31T00:41:01;46.3;;;48.8;;
22515;SDS011;11424;48.860;9.624;2023-07-31T00:46:01;49.4;;;52.1;;
22515;SDS011;11424;48.860;9.624;2023-07-31T00:51:01;47.9;;;50.6;;
22515;SDS011;11424;48.860;9.624;2023-07-31T00:56:01;1.2;;;1.3;;
22515;SDS011;11424;48.860;9.624;2023-07-31T01:01:01;12.9;;;17.2;;
22515;SDS011;11424;48.860;9.624;2023-07-31T01:06:04;23.5;;;26;;
22515;SDS011;11424;48.860;9.624;2023-07-31T01:11:02;38.7;;;41.9;;
22515;SDS011;11424;48.860;9.624;2023-07-31T01:16:01;14.1;;;18.8;;
22515;SDS011;11424;48.860;9.624;2023-07-31T01:21:03;16.7;;;18.9;;
22515;SDS011;11424;48.860;9.624;2023-07-31T01:26:03;35.2;;;36.7;;
22515;SDS011;11424;48.860;9.624;2023-07-31T01:31:01;38.5;;;40.3;;
22515;SDS011;11424;48.860;9.624;2023-07-31T01:36:01;40.4;;;42.3;;
22515;SDS011;11424;48.860;9.624;2023-07-31T01:41:01;51.8;;;55.8;;
22515;SDS011;11424;48.860;9.624;2023-07-31T01:46:01;26.8;;;29.3;;
22515;SDS011;11424;48.860;9.624;2023-07-31T01:51:01;55.3;;;59.6;;
22515;SDS011;11424;48.860;9.624;2023-07-31T01:56:01;25.1;;;27.7;;
22515;SDS011;11424;48.860;9.624;2023-07-31T02:01:01;44.8;;;48;;
22515;SDS011;11424;48.860;9.624;2023-07-31T02:06:01;30.3;;;33.3;;
22515;SDS011;11424;48.860;9.624;2023-07-31T02:11:01;40.3;;;42.3;;
22515;SDS011;11424;48.860;9.624;2023-07-31T02:16:01;42.5;;;44.6;;
22515;SDS011;11424;48.860;9.624;2023-07-31T02:21:01;53.8;;;57.9;;
22515;SDS011;11424;48.860;9.624;2023-07-31T02:26:01;45.9;;;49.9;;
22515;SDS011;11424;48.860;9.624;2023-07-31T02:31:01;14.4;;;17.3;;
22515;SDS011;11424;48.860;9.624;2023-07-31T02:36:01;56.5;;;60.9;;
22515;SDS011;11424;48.860;9.624;2023-07-31T02:41:01;52.8;;;56.6;;
22515;SDS011;11424;48.860;9.624;2023-07-31T02:46:01;56.8;;;61.5;;
22515;SDS011;11424;48.860;9.624;2023-07-31T02:51:01;42;;;45.7;;
22515;SDS011;11424;48.860;9.624;2023-07-31T02:56:01;6.9;;;7.2;;
22515;SDS011;11424;48.860;9.624;2023-07-31T03:01:01;30.6;;;33.3;;
22515;SDS011;11424;48.860;9.624;2023-07-31T03:06:01;17;;;21;;
22515;SDS011;11424;48.860;9.624;2023-07-31T03:11:01;13.9;;;19.3;;
22515;SDS011;11424;48.860;9.624;2023-07-31T03:16:01;14.3;;;20;;
22515;SDS011;11424;48.860;9.624;2023-07-31T03:21:01;15.4;;;20.9;;
22515;SDS011;11424;48.860;9.624;2023-07-31T03:26:02;17.1;;;21.6;;
22515;SDS011;11424;48.860;9.624;2023-07-31T03:31:01;13;;;16.7;;
22515;SDS011;11424;48.860;9.624;2023-07-31T03:36:01;9.5;;;10.6;;
22515;SDS011;11424;48.860;9.624;2023-07-31T03:41:01;45;;;48.8;;
22515;SDS011;11424;48.860;9.624;2023-07-31T03:46:01;23.2;;;25.9;;
22515;SDS011;11424;48.860;9.624;2023-07-31T03:51:01;14.4;;;16.1;;
22515;SDS011;11424;48.860;9.624;2023-07-31T03:56:01;14.6;;;19.4;;
22515;SDS011;11424;48.860;9.624;2023-07-31T04:01:01;11.9;;;17.3;;
22515;SDS011;11424;48.860;9.624;2023-07-31T04:06:01;14.8;;;19.4;;
22515;SDS011;11424;48.860;9.624;2023-07-31T04:11:01;10.6;;;15.4;;
22515;SDS011;11424;48.860;9.624;2023-07-31T04:16:01;13.8;;;19.2;;
22515;SDS011;11424;48.860;9.624;2023-07-31T04:21:01;2.8;;;3;;
22515;SDS011;11424;48.860;9.624;2023-07-31T04:26:01;2.7;;;2.8;;
22515;SDS011;11424;48.860;9.624;2023-07-31T04:31:02;2.5;;;2.6;;
22515;SDS011;11424;48.860;9.624;2023-07-31T04:36:01;2.9;;;3.2;;
22515;SDS011;11424;48.860;9.624;2023-07-31T04:41:01;15.5;;;19.8;;
22515;SDS011;11424;48.860;9.624;2023-07-31T04:46:01;15.9;;;18;;
22515;SDS011;11424;48.860;9.624;2023-07-31T04:51:01;24.9;;;27.4;;
22515;SDS011;11424;48.860;9.624;2023-07-31T04:56:01;15;;;17.2;;
22515;SDS011;11424;48.860;9.624;2023-07-31T05:01:01;28.7;;;31.4;;
22515;SDS011;11424;48.860;9.624;2023-07-31T05:06:01;26.2;;;27.5;;
22515;SDS011;11424;48.860;9.624;2023-07-31T05:11:01;13.9;;;14.6;;
22515;SDS011;11424;48.860;9.624;2023-07-31T05:16:01;8.8;;;9.3;;
22515;SDS011;11424;48.860;9.624;2023-07-31T05:21:01;21.1;;;23.2;;
22515;SDS011;11424;48.860;9.624;2023-07-31T05:26:03;18.7;;;20.6;;
22515;SDS011;11424;48.860;9.624;2023-07-31T05:31:01;20;;;22;;
22515;SDS011;11424;48.860;9.624;2023-07-31T05:36:01;56;;;60.3;;
22515;SDS011;11424;48.860;9.624;2023-07-31T05:41:01;41.7;;;45;;
22515;SDS011;11424;48.860;9.624;2023-07-31T05:46:01;54.4;;;58.6;;
22515;SDS011;11424;48.860;9.624;2023-07-31T05:51:01;42.2;;;44.4;;
22515;SDS011;11424;48.860;9.624;2023-07-31T05:56:01;43.4;;;45.6;;
22515;SDS011;11424;48.860;9.624;2023-07-31T06:01:01;32.3;;;35;;
22515;SDS011;11424;48.860;9.624;2023-07-31T06:06:01;49.8;;;53.2;;
22515;SDS011;11424;48.860;9.624;2023-07-31T06:11:01;53.3;;;57.2;;
22515;SDS011;11424;48.860;9.624;2023-07-31T06:16:01;28.6;;;31.2;;
22515;SDS011;11424;48.860;9.624;2023-07-31T06:21:01;16.3;;;17.9;;
22515;SDS011;11424;48.860;9.624;2023-07-31T06:26:01;58.9;;;63.4;;
22515;SDS011;11424;48.860;9.624;2023-07-31T06:31:01;24.9;;;27.1;;
22515;SDS011;11424;48.860;9.624;2023-07-31T06:36:01;12.3;;;12.9;;
22515;SDS011;11424;48.860;9.624;2023-07-31T06:41:01;12;;;15;;
22515;SDS011;11424;48.860;9.624;2023-07-31T06:46:04;6.6;;;13.1;;
22515;SDS011;11424;48.860;9.624;2023-07-31T06:51:01;8.6;;;14.5;;
22515;SDS011;11424;48.860;9.624;2023-07-31T06:56:01;16.1;;;17.9;;
22515;SDS011;11424;48.860;9.624;2023-07-31T07:01:01;21.7;;;23.8;;
22515;SDS011;11424;48.860;9.624;2023-07-31T07:06:01;20.4;;;22.3;;
22515;SDS011;11424;48.860;9.624;2023-07-31T07:11:01;52.8;;;56.5;;
22515;SDS011;11424;48.860;9.624;2023-07-31T07:16:01;50.1;;;53.4;;
22515;SDS011;11424;48.860;9.624;2023-07-31T07:21:01;16.9;;;18.5;;
22515;SDS011;11424;48.860;9.624;2023-07-31T07:26:01;56.7;;;60.7;;
22515;SDS011;11424;48.860;9.624;2023-07-31T07:31:01;57.6;;;61.5;;
22515;SDS011;11424;48.860;9.624;2023-07-31T07:36:02;38.6;;;41.7;;
22515;SDS011;11424;48.860;9.624;2023-07-31T07:41:01;16.1;;;17.9;;
22515;SDS011;11424;48.860;9.624;2023-07-31T07:46:01;42.8;;;45.7;;
22515;SDS011;11424;48.860;9.624;2023-07-31T07:51:02;28.4;;;30.7;;
22515;SDS011;11424;48.860;9.624;2023-07-31T07:56:01;8.4;;;14.6;;
22515;SDS011;11424;48.860;9.624;2023-07-31T08:01:01;35.9;;;37.6;;
22515;SDS011;11424;48.860;9.624;2023-07-31T08:06:01;1.6;;;1.7;;
22515;SDS011;11424;48.860;9.624;2023-07-31T08:11:02;1.6;;;1.7;;
22515;SDS011;11424;48.860;9.624;2023-07-31T08:16:02;1.4;;;1.6;;
22515;SDS011;11424;48.860;9.624;2023-07-31T08:21:02;6.3;;;13;;
22515;SDS011;11424;48.860;9.624;2023-07-31T08:26:02;7.6;;;15.3;;
22515;SDS011;11424;48.860;9.624;2023-07-31T08:31:02;15;;;17;;
22515;SDS011;11424;48.860;9.624;2023-07-31T08:36:02;19.1;;;20.9;;
22515;SDS011;11424;48.860;9.624;2023-07-31T08:41:02;18.7;;;20.2;;
22515;SDS011;11424;48.860;9.624;2023-07-31T08:46:02;14;;;14.8;;
22515;SDS011;11424;48.860;9.624;2023-07-31T08:51:02;17.4;;;18.2;;
22515;SDS011;11424;48.860;9.624;2023-07-31T08:56:02;40.3;;;42.4;;
22515;SDS011;11424;48.860;9.624;2023-07-31T09:01:03;54.3;;;57.9;;
22515;SDS011;11424;48.860;9.624;2023-07-31T09:06:02;51.2;;;54.6;;
22515;SDS011;11424;48.860;9.624;2023-07-31T09:11:02;52.4;;;55.8;;
22515;SDS011;11424;48.860;9.624;2023-07-31T09:16:02;52.8;;;56.3;;
22515;SDS011;11424;48.860;9.624;2023-07-31T09:21:02;55.3;;;59.1;;
22515;SDS011;11424;48.860;9.624;2023-07-31T09:26:02;55.5;;;59.2;;
22515;SDS011;11424;48.860;9.624;2023-07-31T09:31:02;42.2;;;44.4;;
22515;SDS011;11424;48.860;9.624;2023-07-31T09:36:02;40.2;;;42.3;;
22515;SDS011;11424;48.860;9.624;2023-07-31T09:41:02;52.6;;;56.2;;
22515;SDS011;11424;48.860;9.624;2023-07-31T09:46:02;52.8;;;56.3;;
22515;SDS011;11424;48.860;9.624;2023-07-31T09:51:03;41.6;;;44.5;;
22515;SDS011;11424;48.860;9.624;2023-07-31T09:56:02;55.6;;;59.2;;
22515;SDS011;11424;48.860;9.624;2023-07-31T10:01:02;19.9;;;21.8;;
22515;SDS011;11424;48.860;9.624;2023-07-31T10:06:02;51.9;;;55.4;;
22515;SDS011;11424;48.860;9.624;2023-07-31T10:11:02;51.7;;;55;;
22515;SDS011;11424;48.860;9.624;2023-07-31T10:16:02;27.6;;;28.9;;
22515;SDS011;11424;48.860;9.624;2023-07-31T10:21:02;33.6;;;36.2;;
22515;SDS011;11424;48.860;9.624;2023-07-31T10:26:02;55.2;;;58.8;;
22515;SDS011;11424;48.860;9.624;2023-07-31T10:31:02;49.7;;;52.7;;
22515;SDS011;11424;48.860;9.624;2023-07-31T10:36:17;50.4;;;53.6;;
22515;SDS011;11424;48.860;9.624;2023-07-31T10:41:07;50.6;;;53.8;;
22515;SDS011;11424;48.860;9.624;2023-07-31T10:46:05;52.5;;;55.8;;
22515;SDS011;11424;48.860;9.624;2023-07-31T10:51:06;41.7;;;44.9;;
22515;SDS011;11424;48.860;9.624;2023-07-31T10:56:02;51.2;;;54.4;;
22515;SDS011;11424;48.860;9.624;2023-07-31T11:01:02;34.8;;;37.7;;
22515;SDS011;11424;48.860;9.624;2023-07-31T11:06:02;19.6;;;21.9;;
22515;SDS011;11424;48.860;9.624;2023-07-31T11:11:06;49.9;;;53;;
22515;SDS011;11424;48.860;9.624;2023-07-31T11:16:02;33.4;;;36.3;;
22515;SDS011;11424;48.860;9.624;2023-07-31T11:21:02;51.2;;;54.6;;
22515;SDS011;11424;48.860;9.624;2023-07-31T11:26:02;51.7;;;55;;
22515;SDS011;11424;48.860;9.624;2023-07-31T11:31:02;47.9;;;50.9;;
22515;SDS011;11424;48.860;9.624;2023-07-31T11:36:02;52;;;55.4;;
22515;SDS011;11424;48.860;9.624;2023-07-31T11:41:02;46.1;;;48.7;;
22515;SDS011;11424;48.860;9.624;2023-07-31T11:46:02;52.7;;;56.1;;
22515;SDS011;11424;48.860;9.624;2023-07-31T11:51:02;33.6;;;36.2;;
22515;SDS011;11424;48.860;9.624;2023-07-31T11:56:02;15.4;;;18.9;;
22515;SDS011;11424;48.860;9.624;2023-07-31T12:01:02;15.1;;;18.3;;
22515;SDS011;11424;48.860;9.624;2023-07-31T12:06:02;10.8;;;17.6;;
22515;SDS011;11424;48.860;9.624;2023-07-31T12:11:02;14;;;16;;
22515;SDS011;11424;48.860;9.624;2023-07-31T12:16:02;30;;;32.6;;
22515;SDS011;11424;48.860;9.624;2023-07-31T12:21:02;40.1;;;42.8;;
22515;SDS011;11424;48.860;9.624;2023-07-31T12:26:02;10.3;;;10.7;;
22515;SDS011;11424;48.860;9.624;2023-07-31T12:31:02;10;;;10.5;;
22515;SDS011;11424;48.860;9.624;2023-07-31T12:36:03;1.6;;;1.7;;
22515;SDS011;11424;48.860;9.624;2023-07-31T12:41:02;2.6;;;2.9;;
22515;SDS011;11424;48.860;9.624;2023-07-31T12:46:02;10.5;;;17.2;;
22515;SDS011;11424;48.860;9.624;2023-07-31T12:51:02;11.6;;;18;;
22515;SDS011;11424;48.860;9.624;2023-07-31T12:56:02;10.3;;;16.2;;
22515;SDS011;11424;48.860;9.624;2023-07-31T13:01:02;11.5;;;17.4;;
22515;SDS011;11424;48.860;9.624;2023-07-31T13:06:02;8.3;;;15.3;;
22515;SDS011;11424;48.860;9.624;2023-07-31T13:11:02;2.5;;;2.7;;
22515;SDS011;11424;48.860;9.624;2023-07-31T13:16:02;3.9;;;4.2;;
22515;SDS011;11424;48.860;9.624;2023-07-31T13:21:02;2.6;;;2.8;;
22515;SDS011;11424;48.860;9.624;2023-07-31T13:26:02;16;;;19.3;;
22515;SDS011;11424;48.860;9.624;2023-07-31T13:31:02;11.6;;;17.7;;
22515;SDS011;11424;48.860;9.624;2023-07-31T13:36:02;8.3;;;14.9;;
22515;SDS011;11424;48.860;9.624;2023-07-31T13:41:02;12.7;;;18.7;;
22515;SDS011;11424;48.860;9.624;2023-07-31T13:46:02;12;;;17.8;;
22515;SDS011;11424;48.860;9.624;2023-07-31T13:51:02;20.1;;;22.3;;
22515;SDS011;11424;48.860;9.624;2023-07-31T13:56:02;1.5;;;2;;
22515;SDS011;11424;48.860;9.624;2023-07-31T14:01:02;3.2;;;3.4;;
22515;SDS011;11424;48.860;9.624;2023-07-31T14:06:02;13.8;;;19.5;;
22515;SDS011;11424;48.860;9.624;2023-07-31T14:11:02;11;;;16.6;;
22515;SDS011;11424;48.860;9.624;2023-07-31T14:16:02;12.3;;;19.2;;
22515;SDS011;11424;48.860;9.624;2023-07-31T14:21:02;14.9;;;20;;
22515;SDS011;11424;48.860;9.624;2023-07-31T14:26:02;12.3;;;17.8;;
22515;SDS011;11424;48.860;9.624;2023-07-31T14:31:02;13.6;;;20.3;;
22515;SDS011;11424;48.860;9.624;2023-07-31T14:36:02;9.5;;;12.9;;
22515;SDS011;11424;48.860;9.624;2023-07-31T14:41:02;3.7;;;3.9;;
22515;SDS011;11424;48.860;9.624;2023-07-31T14:46:02;10;;;16.1;;
22515;SDS011;11424;48.860;9.624;2023-07-31T14:51:02;17.7;;;20.4;;
22515;SDS011;11424;48.860;9.624;2023-07-31T14:56:02;12.7;;;17.4;;
22515;SDS011;11424;48.860;9.624;2023-07-31T15:01:02;12.6;;;19.7;;
22515;SDS011;11424;48.860;9.624;2023-07-31T15:06:02;10.4;;;17.6;;
22515;SDS011;11424;48.860;9.624;2023-07-31T15:11:02;12.6;;;19;;
22515;SDS011;11424;48.860;9.624;2023-07-31T15:16:02;8.5;;;15;;
22515;SDS011;11424;48.860;9.624;2023-07-31T15:21:02;2.4;;;2.6;;
22515;SDS011;11424;48.860;9.624;2023-07-31T15:26:02;9;;;15.3;;
22515;SDS011;11424;48.860;9.624;2023-07-31T15:31:02;8;;;12.5;;
22515;SDS011;11424;48.860;9.624;2023-07-31T15:36:02;7.4;;;13.6;;
22515;SDS011;11424;48.860;9.624;2023-07-31T15:41:02;7.5;;;15.1;;
22515;SDS011;11424;48.860;9.624;2023-07-31T15:46:02;20;;;22;;
22515;SDS011;11424;48.860;9.624;2023-07-31T15:51:02;10;;;15.8;;
22515;SDS011;11424;48.860;9.624;2023-07-31T15:56:02;11.4;;;15.1;;
22515;SDS011;11424;48.860;9.624;2023-07-31T16:01:02;9.9;;;14.2;;
22515;SDS011;11424;48.860;9.624;2023-07-31T16:06:02;2.7;;;3;;
22515;SDS011;11424;48.860;9.624;2023-07-31T16:11:02;1.9;;;2.2;;
22515;SDS011;11424;48.860;9.624;2023-07-31T16:16:02;1.8;;;1.9;;
22515;SDS011;11424;48.860;9.624;2023-07-31T16:21:02;3.3;;;3.6;;
22515;SDS011;11424;48.860;9.624;2023-07-31T16:26:02;9.4;;;15.6;;
22515;SDS011;11424;48.860;9.624;2023-07-31T16:31:02;13.6;;;15.8;;
22515;SDS011;11424;48.860;9.624;2023-07-31T16:36:02;12.5;;;15.9;;
22515;SDS011;11424;48.860;9.624;2023-07-31T16:41:02;8.7;;;15.2;;
22515;SDS011;11424;48.860;9.624;2023-07-31T16:46:02;8.5;;;15.4;;
22515;SDS011;11424;48.860;9.624;2023-07-31T16:51:02;1.6;;;1.7;;
22515;SDS011;11424;48.860;9.624;2023-07-31T16:56:03;1.9;;;2;;
22515;SDS011;11424;48.860;9.624;2023-07-31T17:01:02;4.2;;;4.4;;
22515;SDS011;11424;48.860;9.624;2023-07-31T17:06:02;13;;;16.5;;
22515;SDS011;11424;48.860;9.624;2023-07-31T17:11:02;11;;;15;;
22515;SDS011;11424;48.860;9.624;2023-07-31T17:16:02;20.8;;;22.8;;
22515;SDS011;11424;48.860;9.624;2023-07-31T17:21:02;22.4;;;24.4;;
22515;SDS011;11424;48.860;9.624;2023-07-31T17:26:02;6.3;;;11.7;;
22515;SDS011;11424;48.860;9.624;2023-07-31T17:31:02;21.5;;;24.1;;
22515;SDS011;11424;48.860;9.624;2023-07-31T17:36:02;19.8;;;21.6;;
22515;SDS011;11424;48.860;9.624;2023-07-31T17:41:02;14.7;;;15.6;;
22515;SDS011;11424;48.860;9.624;2023-07-31T17:46:02;10.2;;;18.3;;
22515;SDS011;11424;48.860;9.624;2023-07-31T17:51:02;7.7;;;15.7;;
22515;SDS011;11424;48.860;9.624;2023-07-31T17:56:02;12.3;;;15.5;;
22515;SDS011;11424;48.860;9.624;2023-07-31T18:01:02;12.5;;;15.3;;
22515;SDS011;11424;48.860;9.624;2023-07-31T18:06:02;15.7;;;17.5;;
22515;SDS011;11424;48.860;9.624;2023-07-31T18:11:02;7.7;;;12.5;;
22515;SDS011;11424;48.860;9.624;2023-07-31T18:16:02;17.5;;;19;;
22515;SDS011;11424;48.860;9.624;2023-07-31T18:21:02;5.4;;;5.7;;
22515;SDS011;11424;48.860;9.624;2023-07-31T18:26:02;7.6;;;15.7;;
22515;SDS011;11424;48.860;9.624;2023-07-31T18:31:02;12.7;;;15.7;;
22515;SDS011;11424;48.860;9.624;2023-07-31T18:36:02;33.7;;;36.2;;
22515;SDS011;11424;48.860;9.624;2023-07-31T18:41:04;21.3;;;23.5;;
22515;SDS011;11424;48.860;9.624;2023-07-31T18:46:02;7.5;;;12.4;;
22515;SDS011;11424;48.860;9.624;2023-07-31T18:51:02;5.7;;;11.6;;
22515;SDS011;11424;48.860;9.624;2023-07-31T18:56:02;6;;;11.3;;
22515;SDS011;11424;48.860;9.624;2023-07-31T19:01:02;2.6;;;3.7;;
22515;SDS011;11424;48.860;9.624;2023-07-31T19:06:03;5.8;;;10.4;;
22515;SDS011;11424;48.860;9.624;2023-07-31T19:11:02;7.2;;;13.9;;
22515;SDS011;11424;48.860;9.624;2023-07-31T19:16:02;13.9;;;16.6;;
22515;SDS011;11424;48.860;9.624;2023-07-31T19:21:02;20.2;;;22;;
22515;SDS011;11424;48.860;9.624;2023-07-31T19:26:02;13.2;;;16;;
22515;SDS011;11424;48.860;9.624;2023-07-31T19:31:02;22.5;;;24.6;;
22515;SDS011;11424;48.860;9.624;2023-07-31T19:36:02;8.9;;;15.4;;
22515;SDS011;11424;48.860;9.624;2023-07-31T19:41:02;13.6;;;17;;
22515;SDS011;11424;48.860;9.624;2023-07-31T19:46:02;27.9;;;29.2;;
22515;SDS011;11424;48.860;9.624;2023-07-31T19:51:02;6.1;;;6.5;;
22515;SDS011;11424;48.860;9.624;2023-07-31T19:56:02;7.1;;;7.5;;
22515;SDS011;11424;48.860;9.624;2023-07-31T20:01:02;4.5;;;4.8;;
22515;SDS011;11424;48.860;9.624;2023-07-31T20:06:02;12.6;;;16.1;;
22515;SDS011;11424;48.860;9.624;2023-07-31T20:11:02;10.6;;;15;;
22515;SDS011;11424;48.860;9.624;2023-07-31T20:16:02;20.4;;;22.5;;
22515;SDS011;11424;48.860;9.624;2023-07-31T20:21:02;18;;;20.1;;
22515;SDS011;11424;48.860;9.624;2023-07-31T20:26:02;35.6;;;38.2;;
22515;SDS011;11424;48.860;9.624;2023-07-31T20:31:03;3.7;;;3.9;;
22515;SDS011;11424;48.860;9.624;2023-07-31T20:36:03;27.7;;;29;;
22515;SDS011;11424;48.860;9.624;2023-07-31T20:41:02;3.3;;;3.6;;
22515;SDS011;11424;48.860;9.624;2023-07-31T20:46:02;15.1;;;17;;
22515;SDS011;11424;48.860;9.624;2023-07-31T20:51:03;8.1;;;15.5;;
22515;SDS011;11424;48.860;9.624;2023-07-31T20:56:03;23.6;;;25.6;;
22515;SDS011;11424;48.860;9.624;2023-07-31T21:01:03;13.7;;;16.6;;
22515;SDS011;11424;48.860;9.624;2023-07-31T21:06:03;8.7;;;13.8;;
22515;SDS011;11424;48.860;9.624;2023-07-31T21:11:03;21.4;;;23.4;;
22515;SDS011;11424;48.860;9.624;2023-07-31T21:16:03;4.6;;;4.9;;
22515;SDS011;11424;48.860;9.624;2023-07-31T21:21:03;29;;;30.5;;
22515;SDS011;11424;48.860;9.624;2023-07-31T21:26:02;21.1;;;23.1;;
22515;SDS011;11424;48.860;9.624;2023-07-31T21:31:08;22.8;;;25.1;;
22515;SDS011;11424;48.860;9.624;2023-07-31T21:36:03;12;;;17.6;;
22515;SDS011;11424;48.860;9.624;2023-07-31T21:41:03;13.2;;;17;;
22515;SDS011;11424;48.860;9.624;2023-07-31T21:46:03;34.1;;;36.7;;
22515;SDS011;11424;48.860;9.624;2023-07-31T21:51:03;21.1;;;23.1;;
22515;SDS011;11424;48.860;9.624;2023-07-31T21:56:03;20.5;;;22.2;;
22515;SDS011;11424;48.860;9.624;2023-07-31T22:01:03;21.6;;;22.6;;
22515;SDS011;11424;48.860;9.624;2023-07-31T22:06:03;25.5;;;27.7;;
22515;SDS011;11424;48.860;9.624;2023-07-31T22:11:03;11.9;;;16.4;;
22515;SDS011;11424;48.860;9.624;2023-07-31T22:16:03;23.7;;;25.7;;
22515;SDS011;11424;48.860;9.624;2023-07-31T22:21:03;24.9;;;27;;
22515;SDS011;11424;48.860;9.624;2023-07-31T22:26:03;9.2;;;15.2;;
22515;SDS011;11424;48.860;9.624;2023-07-31T22:31:03;8.9;;;13.4;;
22515;SDS011;11424;48.860;9.624;2023-07-31T22:36:03;10.7;;;15.7;;
22515;SDS011;11424;48.860;9.624;2023-07-31T22:41:03;5.1;;;5.4;;
22515;SDS011;11424;48.860;9.624;2023-07-31T22:46:03;24.5;;;26.6;;
22515;SDS011;11424;48.860;9.624;2023-07-31T22:51:04;24.6;;;26.7;;
22515;SDS011;11424;48.860;9.624;2023-07-31T22:56:03;29.3;;;31.5;;
22515;SDS011;11424;48.860;9.624;2023-07-31T23:01:03;23.4;;;25.4;;
22515;SDS011;11424;48.860;9.624;2023-07-31T23:06:03;24.6;;;26.7;;
22515;SDS011;11424;48.860;9.624;2023-07-31T23:11:03;25.9;;;28.2;;
22515;SDS011;11424;48.860;9.624;2023-07-31T23:16:03;29;;;31.5;;
22515;SDS011;11424;48.860;9.624;2023-07-31T23:21:03;30.4;;;33;;
22515;SDS011;11424;48.860;9.624;2023-07-31T23:26:03;21.7;;;22.8;;
22515;SDS011;11424;48.860;9.624;2023-07-31T23:31:03;28.2;;;29.5;;
22515;SDS011;11424;48.860;9.624;2023-07-31T23:36:07;5.2;;;5.6;;
22515;SDS011;11424;48.860;9.624;2023-07-31T23:41:03;6.2;;;6.6;;
22515;SDS011;11424;48.860;9.624;2023-07-31T23:46:03;21.6;;;23.8;;
22515;SDS011;11424;48.860;9.624;2023-07-31T23:51:03;23.2;;;25.4;;
22515;SDS011;11424;48.860;9.624;2023-07-31T23:56:03;30.6;;;33;;
